sensor_id;sensor_type;location;lat;lon;timestamp;temperature;humidity
20946;DHT22;10632;51.276;7.116;2023-05-21T00:01:07;12.50;99.90
20946;DHT22;10632;51.276;7.116;2023-05-21T00:03:34;12.50;99.90
20946;DHT22;10632;51.276;7.116;2023-05-21T00:06:01;12.50;99.90
20946;DHT22;10632;51.276;7.116;2023-05-21T00:08:28;12.50;99.90
20946;DHT22;10632;51.276;7.116;2023-05-21T00:10:58;12.50;99.90
20946;DHT22;10632;51.276;7.116;2023-05-21T00:13:25;12.50;99.90
20946;DHT22;10632;51.276;7.116;2023-05-21T00:15:52;12.50;99.90
20946;DHT22;10632;51.276;7.116;2023-05-21T00:18:20;12.50;99.90
20946;DHT22;10632;51.276;7.116;2023-05-21T00:20:49;12.50;99.90
20946;DHT22;10632;51.276;7.116;2023-05-21T00:23:17;12.50;99.90
20946;DHT22;10632;51.276;7.116;2023-05-21T00:25:44;12.40;99.90
20946;DHT22;10632;51.276;7.116;2023-05-21T00:28:12;12.40;99.90
20946;DHT22;10632;51.276;7.116;2023-05-21T00:30:39;12.40;99.90
20946;DHT22;10632;51.276;7.116;2023-05-21T00:33:08;12.40;99.90
20946;DHT22;10632;51.276;7.116;2023-05-21T00:35:39;12.40;99.90
20946;DHT22;10632;51.276;7.116;2023-05-21T00:38:06;12.40;99.90
20946;DHT22;10632;51.276;7.116;2023-05-21T00:40:34;12.40;99.90
20946;DHT22;10632;51.276;7.116;2023-05-21T00:43:01;12.40;99.90
20946;DHT22;10632;51.276;7.116;2023-05-21T00:45:28;12.40;99.90
20946;DHT22;10632;51.276;7.116;2023-05-21T00:47:54;12.30;99.90
20946;DHT22;10632;51.276;7.116;2023-05-21T00:50:22;12.30;99.90
20946;DHT22;10632;51.276;7.116;2023-05-21T00:52:50;12.30;99.90
20946;DHT22;10632;51.276;7.116;2023-05-21T00:55:18;12.30;99.90
20946;DHT22;10632;51.276;7.116;2023-05-21T00:57:44;12.30;99.90
20946;DHT22;10632;51.276;7.116;2023-05-21T01:00:13;12.30;99.90
20946;DHT22;10632;51.276;7.116;2023-05-21T01:02:41;12.30;99.90
20946;DHT22;10632;51.276;7.116;2023-05-21T01:05:09;12.30;99.90
20946;DHT22;10632;51.276;7.116;2023-05-21T01:07:38;12.20;99.90
20946;DHT22;10632;51.276;7.116;2023-05-21T01:10:09;12.20;99.90
20946;DHT22;10632;51.276;7.116;2023-05-21T01:12:38;12.20;99.90
20946;DHT22;10632;51.276;7.116;2023-05-21T01:15:11;12.20;99.90
20946;DHT22;10632;51.276;7.116;2023-05-21T01:17:39;12.20;99.90
20946;DHT22;10632;51.276;7.116;2023-05-21T01:20:06;12.20;99.90
20946;DHT22;10632;51.276;7.116;2023-05-21T01:22:37;12.20;99.90
20946;DHT22;10632;51.276;7.116;2023-05-21T01:25:09;12.20;99.90
20946;DHT22;10632;51.276;7.116;2023-05-21T01:27:36;12.20;99.90
20946;DHT22;10632;51.276;7.116;2023-05-21T01:30:04;12.20;99.90
20946;DHT22;10632;51.276;7.116;2023-05-21T01:32:36;12.10;99.90
20946;DHT22;10632;51.276;7.116;2023-05-21T01:35:07;12.10;99.90
20946;DHT22;10632;51.276;7.116;2023-05-21T01:37:37;12.10;99.90
20946;DHT22;10632;51.276;7.116;2023-05-21T01:40:11;12.10;99.90
20946;DHT22;10632;51.276;7.116;2023-05-21T01:42:42;12.10;99.90
20946;DHT22;10632;51.276;7.116;2023-05-21T01:45:10;12.10;99.90
20946;DHT22;10632;51.276;7.116;2023-05-21T01:47:38;12.10;99.90
20946;DHT22;10632;51.276;7.116;2023-05-21T01:50:06;12.10;99.90
20946;DHT22;10632;51.276;7.116;2023-05-21T01:52:38;12.10;99.90
20946;DHT22;10632;51.276;7.116;2023-05-21T01:55:09;12.00;99.90
20946;DHT22;10632;51.276;7.116;2023-05-21T01:57:36;12.00;99.90
20946;DHT22;10632;51.276;7.116;2023-05-21T02:00:03;12.00;99.90
20946;DHT22;10632;51.276;7.116;2023-05-21T02:02:30;12.00;99.90
20946;DHT22;10632;51.276;7.116;2023-05-21T02:04:57;12.00;99.90
20946;DHT22;10632;51.276;7.116;2023-05-21T02:07:24;12.00;99.90
20946;DHT22;10632;51.276;7.116;2023-05-21T02:09:53;12.00;99.90
20946;DHT22;10632;51.276;7.116;2023-05-21T02:12:21;11.90;99.90
20946;DHT22;10632;51.276;7.116;2023-05-21T02:14:50;11.90;99.90
20946;DHT22;10632;51.276;7.116;2023-05-21T02:17:17;11.90;99.90
20946;DHT22;10632;51.276;7.116;2023-05-21T02:19:44;11.80;99.90
20946;DHT22;10632;51.276;7.116;2023-05-21T02:22:10;11.80;99.90
20946;DHT22;10632;51.276;7.116;2023-05-21T02:24:37;11.80;99.90
20946;DHT22;10632;51.276;7.116;2023-05-21T02:27:04;11.80;99.90
20946;DHT22;10632;51.276;7.116;2023-05-21T02:29:33;11.80;99.90
20946;DHT22;10632;51.276;7.116;2023-05-21T02:32:00;11.80;99.90
20946;DHT22;10632;51.276;7.116;2023-05-21T02:34:26;11.70;99.90
20946;DHT22;10632;51.276;7.116;2023-05-21T02:36:55;11.80;99.90
20946;DHT22;10632;51.276;7.116;2023-05-21T02:39:23;11.80;99.90
20946;DHT22;10632;51.276;7.116;2023-05-21T02:41:50;11.70;99.90
20946;DHT22;10632;51.276;7.116;2023-05-21T02:44:17;11.70;99.90
20946;DHT22;10632;51.276;7.116;2023-05-21T02:46:46;11.70;99.90
20946;DHT22;10632;51.276;7.116;2023-05-21T02:49:13;11.70;99.90
20946;DHT22;10632;51.276;7.116;2023-05-21T02:51:40;11.70;99.90
20946;DHT22;10632;51.276;7.116;2023-05-21T02:54:10;11.70;99.90
20946;DHT22;10632;51.276;7.116;2023-05-21T02:56:37;11.70;99.90
20946;DHT22;10632;51.276;7.116;2023-05-21T02:59:04;11.70;99.90
20946;DHT22;10632;51.276;7.116;2023-05-21T03:01:31;11.70;99.90
20946;DHT22;10632;51.276;7.116;2023-05-21T03:03:59;11.70;99.90
20946;DHT22;10632;51.276;7.116;2023-05-21T03:06:26;11.70;99.90
20946;DHT22;10632;51.276;7.116;2023-05-21T03:08:53;11.60;99.90
20946;DHT22;10632;51.276;7.116;2023-05-21T03:11:20;11.70;99.90
20946;DHT22;10632;51.276;7.116;2023-05-21T03:13:47;11.70;99.90
20946;DHT22;10632;51.276;7.116;2023-05-21T03:16:14;11.70;99.90
20946;DHT22;10632;51.276;7.116;2023-05-21T03:18:43;11.60;99.90
20946;DHT22;10632;51.276;7.116;2023-05-21T03:21:12;11.60;99.90
20946;DHT22;10632;51.276;7.116;2023-05-21T03:23:39;11.60;99.90
20946;DHT22;10632;51.276;7.116;2023-05-21T03:26:07;11.60;99.90
20946;DHT22;10632;51.276;7.116;2023-05-21T03:28:34;11.60;99.90
20946;DHT22;10632;51.276;7.116;2023-05-21T03:31:01;11.60;99.90
20946;DHT22;10632;51.276;7.116;2023-05-21T03:33:31;11.60;99.90
20946;DHT22;10632;51.276;7.116;2023-05-21T03:35:57;11.60;99.90
20946;DHT22;10632;51.276;7.116;2023-05-21T03:38:26;11.60;99.90
20946;DHT22;10632;51.276;7.116;2023-05-21T03:40:53;11.60;99.90
20946;DHT22;10632;51.276;7.116;2023-05-21T03:43:20;11.60;99.90
20946;DHT22;10632;51.276;7.116;2023-05-21T03:45:47;11.60;99.90
20946;DHT22;10632;51.276;7.116;2023-05-21T03:48:14;11.60;99.90
20946;DHT22;10632;51.276;7.116;2023-05-21T03:50:41;11.60;99.90
20946;DHT22;10632;51.276;7.116;2023-05-21T03:53:08;11.60;99.90
20946;DHT22;10632;51.276;7.116;2023-05-21T03:55:36;11.60;99.90
20946;DHT22;10632;51.276;7.116;2023-05-21T03:58:03;11.60;99.90
20946;DHT22;10632;51.276;7.116;2023-05-21T04:00:30;11.60;99.90
20946;DHT22;10632;51.276;7.116;2023-05-21T04:02:59;11.60;99.90
20946;DHT22;10632;51.276;7.116;2023-05-21T04:05:26;11.60;99.90
20946;DHT22;10632;51.276;7.116;2023-05-21T04:07:53;11.60;99.90
20946;DHT22;10632;51.276;7.116;2023-05-21T04:10:20;11.60;99.90
20946;DHT22;10632;51.276;7.116;2023-05-21T04:12:49;11.60;99.90
20946;DHT22;10632;51.276;7.116;2023-05-21T04:15:17;11.60;99.90
20946;DHT22;10632;51.276;7.116;2023-05-21T04:17:44;11.60;99.90
20946;DHT22;10632;51.276;7.116;2023-05-21T04:20:12;11.60;99.90
20946;DHT22;10632;51.276;7.116;2023-05-21T04:22:41;11.60;99.90
20946;DHT22;10632;51.276;7.116;2023-05-21T04:25:08;11.60;99.90
20946;DHT22;10632;51.276;7.116;2023-05-21T04:27:35;11.60;99.90
20946;DHT22;10632;51.276;7.116;2023-05-21T04:30:05;11.60;99.90
20946;DHT22;10632;51.276;7.116;2023-05-21T04:32:32;11.60;99.90
20946;DHT22;10632;51.276;7.116;2023-05-21T04:34:59;11.60;99.90
20946;DHT22;10632;51.276;7.116;2023-05-21T04:37:26;11.60;99.90
20946;DHT22;10632;51.276;7.116;2023-05-21T04:39:54;11.60;99.90
20946;DHT22;10632;51.276;7.116;2023-05-21T04:42:21;11.60;99.90
20946;DHT22;10632;51.276;7.116;2023-05-21T04:44:49;11.60;99.90
20946;DHT22;10632;51.276;7.116;2023-05-21T04:47:17;11.60;99.90
20946;DHT22;10632;51.276;7.116;2023-05-21T04:49:44;11.60;99.90
20946;DHT22;10632;51.276;7.116;2023-05-21T04:52:12;11.60;99.90
20946;DHT22;10632;51.276;7.116;2023-05-21T04:54:39;11.60;99.90
20946;DHT22;10632;51.276;7.116;2023-05-21T04:57:06;11.60;99.90
20946;DHT22;10632;51.276;7.116;2023-05-21T04:59:33;11.60;99.90
20946;DHT22;10632;51.276;7.116;2023-05-21T05:02:00;11.70;99.90
20946;DHT22;10632;51.276;7.116;2023-05-21T05:04:29;11.70;99.90
20946;DHT22;10632;51.276;7.116;2023-05-21T05:06:57;11.70;99.90
20946;DHT22;10632;51.276;7.116;2023-05-21T05:09:25;11.70;99.90
20946;DHT22;10632;51.276;7.116;2023-05-21T05:11:51;11.70;99.90
20946;DHT22;10632;51.276;7.116;2023-05-21T05:14:21;11.70;99.90
20946;DHT22;10632;51.276;7.116;2023-05-21T05:16:48;11.80;99.90
20946;DHT22;10632;51.276;7.116;2023-05-21T05:19:15;11.80;99.90
20946;DHT22;10632;51.276;7.116;2023-05-21T05:21:43;11.80;99.90
20946;DHT22;10632;51.276;7.116;2023-05-21T05:24:10;11.80;99.90
20946;DHT22;10632;51.276;7.116;2023-05-21T05:26:37;11.80;99.90
20946;DHT22;10632;51.276;7.116;2023-05-21T05:29:04;11.80;99.90
20946;DHT22;10632;51.276;7.116;2023-05-21T05:31:44;11.80;99.90
20946;DHT22;10632;51.276;7.116;2023-05-21T05:34:11;11.90;99.90
20946;DHT22;10632;51.276;7.116;2023-05-21T05:36:38;11.90;99.90
20946;DHT22;10632;51.276;7.116;2023-05-21T05:39:07;11.90;99.90
20946;DHT22;10632;51.276;7.116;2023-05-21T05:41:34;11.90;99.90
20946;DHT22;10632;51.276;7.116;2023-05-21T05:44:01;11.90;99.90
20946;DHT22;10632;51.276;7.116;2023-05-21T05:46:28;12.00;99.90
20946;DHT22;10632;51.276;7.116;2023-05-21T05:48:55;12.00;99.90
20946;DHT22;10632;51.276;7.116;2023-05-21T05:51:22;12.00;99.90
20946;DHT22;10632;51.276;7.116;2023-05-21T05:53:49;12.00;99.90
20946;DHT22;10632;51.276;7.116;2023-05-21T05:56:17;12.00;99.90
20946;DHT22;10632;51.276;7.116;2023-05-21T05:58:44;12.00;99.90
20946;DHT22;10632;51.276;7.116;2023-05-21T06:01:11;12.10;99.90
20946;DHT22;10632;51.276;7.116;2023-05-21T06:03:38;12.10;99.90
20946;DHT22;10632;51.276;7.116;2023-05-21T06:06:05;12.10;99.90
20946;DHT22;10632;51.276;7.116;2023-05-21T06:08:34;12.10;99.90
20946;DHT22;10632;51.276;7.116;2023-05-21T06:11:01;12.20;99.90
20946;DHT22;10632;51.276;7.116;2023-05-21T06:13:29;12.20;99.90
20946;DHT22;10632;51.276;7.116;2023-05-21T06:15:56;12.20;99.90
20946;DHT22;10632;51.276;7.116;2023-05-21T06:18:23;12.20;99.90
20946;DHT22;10632;51.276;7.116;2023-05-21T06:20:50;12.30;99.90
20946;DHT22;10632;51.276;7.116;2023-05-21T06:23:17;12.30;99.90
20946;DHT22;10632;51.276;7.116;2023-05-21T06:25:44;12.30;99.90
20946;DHT22;10632;51.276;7.116;2023-05-21T06:28:11;12.30;99.90
20946;DHT22;10632;51.276;7.116;2023-05-21T06:30:39;12.40;99.90
20946;DHT22;10632;51.276;7.116;2023-05-21T06:33:06;12.40;99.90
20946;DHT22;10632;51.276;7.116;2023-05-21T06:35:37;12.40;99.90
20946;DHT22;10632;51.276;7.116;2023-05-21T06:38:07;12.50;99.90
20946;DHT22;10632;51.276;7.116;2023-05-21T06:40:34;12.50;99.90
20946;DHT22;10632;51.276;7.116;2023-05-21T06:43:01;12.60;99.90
20946;DHT22;10632;51.276;7.116;2023-05-21T06:45:29;12.60;99.90
20946;DHT22;10632;51.276;7.116;2023-05-21T06:47:57;12.70;99.90
20946;DHT22;10632;51.276;7.116;2023-05-21T06:50:25;12.70;99.90
20946;DHT22;10632;51.276;7.116;2023-05-21T06:52:51;12.70;99.90
20946;DHT22;10632;51.276;7.116;2023-05-21T06:55:18;12.80;99.90
20946;DHT22;10632;51.276;7.116;2023-05-21T06:57:45;12.80;99.90
20946;DHT22;10632;51.276;7.116;2023-05-21T07:00:13;12.90;99.90
20946;DHT22;10632;51.276;7.116;2023-05-21T07:02:40;12.90;99.90
20946;DHT22;10632;51.276;7.116;2023-05-21T07:05:08;13.00;99.90
20946;DHT22;10632;51.276;7.116;2023-05-21T07:07:35;13.00;99.90
20946;DHT22;10632;51.276;7.116;2023-05-21T07:10:03;13.10;99.90
20946;DHT22;10632;51.276;7.116;2023-05-21T07:12:30;13.10;99.90
20946;DHT22;10632;51.276;7.116;2023-05-21T07:14:58;13.20;99.90
20946;DHT22;10632;51.276;7.116;2023-05-21T07:17:27;13.30;99.90
20946;DHT22;10632;51.276;7.116;2023-05-21T07:19:54;13.30;99.90
20946;DHT22;10632;51.276;7.116;2023-05-21T07:22:22;13.40;99.90
20946;DHT22;10632;51.276;7.116;2023-05-21T07:24:49;13.60;99.90
20946;DHT22;10632;51.276;7.116;2023-05-21T07:27:16;13.70;99.90
20946;DHT22;10632;51.276;7.116;2023-05-21T07:29:43;13.90;99.90
20946;DHT22;10632;51.276;7.116;2023-05-21T07:32:10;13.90;99.90
20946;DHT22;10632;51.276;7.116;2023-05-21T07:34:44;13.90;99.90
20946;DHT22;10632;51.276;7.116;2023-05-21T07:37:11;13.90;99.90
20946;DHT22;10632;51.276;7.116;2023-05-21T07:39:42;13.90;99.90
20946;DHT22;10632;51.276;7.116;2023-05-21T07:42:09;13.90;99.90
20946;DHT22;10632;51.276;7.116;2023-05-21T07:44:36;13.90;99.90
20946;DHT22;10632;51.276;7.116;2023-05-21T07:47:03;14.00;99.90
20946;DHT22;10632;51.276;7.116;2023-05-21T07:49:30;14.00;99.90
20946;DHT22;10632;51.276;7.116;2023-05-21T07:51:57;14.00;99.90
20946;DHT22;10632;51.276;7.116;2023-05-21T07:54:24;14.10;99.90
20946;DHT22;10632;51.276;7.116;2023-05-21T07:56:52;14.20;99.90
20946;DHT22;10632;51.276;7.116;2023-05-21T07:59:19;14.20;99.90
20946;DHT22;10632;51.276;7.116;2023-05-21T08:01:46;14.30;99.90
20946;DHT22;10632;51.276;7.116;2023-05-21T08:04:13;14.40;99.90
20946;DHT22;10632;51.276;7.116;2023-05-21T08:06:40;14.40;99.90
20946;DHT22;10632;51.276;7.116;2023-05-21T08:09:07;14.50;99.90
20946;DHT22;10632;51.276;7.116;2023-05-21T08:11:34;14.60;99.90
20946;DHT22;10632;51.276;7.116;2023-05-21T08:14:02;14.60;99.90
20946;DHT22;10632;51.276;7.116;2023-05-21T08:16:29;14.70;99.90
20946;DHT22;10632;51.276;7.116;2023-05-21T08:18:56;14.70;99.90
20946;DHT22;10632;51.276;7.116;2023-05-21T08:21:23;14.80;99.90
20946;DHT22;10632;51.276;7.116;2023-05-21T08:23:51;14.90;99.90
20946;DHT22;10632;51.276;7.116;2023-05-21T08:26:18;15.00;99.90
20946;DHT22;10632;51.276;7.116;2023-05-21T08:28:45;15.10;99.90
20946;DHT22;10632;51.276;7.116;2023-05-21T08:31:14;15.10;99.90
20946;DHT22;10632;51.276;7.116;2023-05-21T08:33:51;15.20;99.90
20946;DHT22;10632;51.276;7.116;2023-05-21T08:36:21;15.30;99.90
20946;DHT22;10632;51.276;7.116;2023-05-21T08:38:48;15.30;99.90
20946;DHT22;10632;51.276;7.116;2023-05-21T08:41:15;15.30;99.90
20946;DHT22;10632;51.276;7.116;2023-05-21T08:43:45;15.30;99.90
20946;DHT22;10632;51.276;7.116;2023-05-21T08:46:15;15.40;99.90
20946;DHT22;10632;51.276;7.116;2023-05-21T08:48:45;15.40;99.90
20946;DHT22;10632;51.276;7.116;2023-05-21T08:51:12;15.40;99.90
20946;DHT22;10632;51.276;7.116;2023-05-21T08:53:40;15.40;99.90
20946;DHT22;10632;51.276;7.116;2023-05-21T08:56:07;15.60;99.90
20946;DHT22;10632;51.276;7.116;2023-05-21T08:58:35;15.70;99.90
20946;DHT22;10632;51.276;7.116;2023-05-21T09:01:03;15.70;99.90
20946;DHT22;10632;51.276;7.116;2023-05-21T09:03:31;15.90;99.90
20946;DHT22;10632;51.276;7.116;2023-05-21T09:05:59;16.00;99.90
20946;DHT22;10632;51.276;7.116;2023-05-21T09:08:29;16.10;99.90
20946;DHT22;10632;51.276;7.116;2023-05-21T09:10:57;16.20;99.90
20946;DHT22;10632;51.276;7.116;2023-05-21T09:13:25;16.30;99.90
20946;DHT22;10632;51.276;7.116;2023-05-21T09:15:53;16.40;99.90
20946;DHT22;10632;51.276;7.116;2023-05-21T09:18:19;16.50;99.90
20946;DHT22;10632;51.276;7.116;2023-05-21T09:20:50;16.60;99.90
20946;DHT22;10632;51.276;7.116;2023-05-21T09:23:18;16.70;99.90
20946;DHT22;10632;51.276;7.116;2023-05-21T09:25:47;16.70;99.90
20946;DHT22;10632;51.276;7.116;2023-05-21T09:28:15;16.70;99.90
20946;DHT22;10632;51.276;7.116;2023-05-21T09:30:45;16.80;99.90
20946;DHT22;10632;51.276;7.116;2023-05-21T09:33:23;16.90;99.90
20946;DHT22;10632;51.276;7.116;2023-05-21T09:35:51;17.00;99.90
20946;DHT22;10632;51.276;7.116;2023-05-21T09:38:21;17.00;99.90
20946;DHT22;10632;51.276;7.116;2023-05-21T09:40:48;17.00;99.90
20946;DHT22;10632;51.276;7.116;2023-05-21T09:43:15;17.20;99.90
20946;DHT22;10632;51.276;7.116;2023-05-21T09:45:52;17.30;99.90
20946;DHT22;10632;51.276;7.116;2023-05-21T09:48:32;17.40;99.90
20946;DHT22;10632;51.276;7.116;2023-05-21T09:51:11;17.40;99.90
20946;DHT22;10632;51.276;7.116;2023-05-21T09:53:49;17.50;99.90
20946;DHT22;10632;51.276;7.116;2023-05-21T09:56:19;17.50;99.90
20946;DHT22;10632;51.276;7.116;2023-05-21T09:58:48;17.60;99.90
20946;DHT22;10632;51.276;7.116;2023-05-21T10:01:18;17.60;99.90
20946;DHT22;10632;51.276;7.116;2023-05-21T10:03:54;17.70;99.90
20946;DHT22;10632;51.276;7.116;2023-05-21T10:06:26;17.70;99.90
20946;DHT22;10632;51.276;7.116;2023-05-21T10:08:54;17.90;99.90
20946;DHT22;10632;51.276;7.116;2023-05-21T10:11:22;18.00;99.90
20946;DHT22;10632;51.276;7.116;2023-05-21T10:13:56;18.10;99.90
20946;DHT22;10632;51.276;7.116;2023-05-21T10:16:27;18.10;99.90
20946;DHT22;10632;51.276;7.116;2023-05-21T10:18:56;18.10;99.90
20946;DHT22;10632;51.276;7.116;2023-05-21T10:21:26;18.20;99.90
20946;DHT22;10632;51.276;7.116;2023-05-21T10:23:54;18.30;99.90
20946;DHT22;10632;51.276;7.116;2023-05-21T10:26:23;18.40;99.90
20946;DHT22;10632;51.276;7.116;2023-05-21T10:28:51;18.40;99.90
20946;DHT22;10632;51.276;7.116;2023-05-21T10:31:18;18.50;99.90
20946;DHT22;10632;51.276;7.116;2023-05-21T10:33:47;18.50;99.90
20946;DHT22;10632;51.276;7.116;2023-05-21T10:36:18;18.50;99.90
20946;DHT22;10632;51.276;7.116;2023-05-21T10:38:47;18.50;99.90
20946;DHT22;10632;51.276;7.116;2023-05-21T10:41:16;18.60;99.90
20946;DHT22;10632;51.276;7.116;2023-05-21T10:43:48;18.80;99.90
20946;DHT22;10632;51.276;7.116;2023-05-21T10:46:43;18.80;99.90
20946;DHT22;10632;51.276;7.116;2023-05-21T10:49:34;18.90;99.90
20946;DHT22;10632;51.276;7.116;2023-05-21T10:52:11;18.90;99.90
20946;DHT22;10632;51.276;7.116;2023-05-21T10:55:12;19.00;99.90
20946;DHT22;10632;51.276;7.116;2023-05-21T10:58:14;19.10;99.90
20946;DHT22;10632;51.276;7.116;2023-05-21T11:00:47;19.20;99.90
20946;DHT22;10632;51.276;7.116;2023-05-21T11:03:15;19.30;99.90
20946;DHT22;10632;51.276;7.116;2023-05-21T11:05:50;19.40;99.90
20946;DHT22;10632;51.276;7.116;2023-05-21T11:08:20;19.50;99.90
20946;DHT22;10632;51.276;7.116;2023-05-21T11:10:53;19.50;99.90
20946;DHT22;10632;51.276;7.116;2023-05-21T11:13:24;19.50;99.90
20946;DHT22;10632;51.276;7.116;2023-05-21T11:16:05;19.50;99.90
20946;DHT22;10632;51.276;7.116;2023-05-21T11:19:00;19.60;99.90
20946;DHT22;10632;51.276;7.116;2023-05-21T11:24:02;19.50;99.90
20946;DHT22;10632;51.276;7.116;2023-05-21T11:26:59;19.40;99.90
20946;DHT22;10632;51.276;7.116;2023-05-21T11:29:41;19.40;99.90
20946;DHT22;10632;51.276;7.116;2023-05-21T11:32:13;19.40;99.90
20946;DHT22;10632;51.276;7.116;2023-05-21T11:34:43;19.40;99.90
20946;DHT22;10632;51.276;7.116;2023-05-21T11:37:27;19.40;99.90
20946;DHT22;10632;51.276;7.116;2023-05-21T11:42:39;19.40;99.90
20946;DHT22;10632;51.276;7.116;2023-05-21T11:45:08;19.40;99.90
20946;DHT22;10632;51.276;7.116;2023-05-21T11:47:35;19.40;99.90
20946;DHT22;10632;51.276;7.116;2023-05-21T11:50:03;19.50;99.90
20946;DHT22;10632;51.276;7.116;2023-05-21T11:52:30;19.50;99.90
20946;DHT22;10632;51.276;7.116;2023-05-21T11:55:02;19.60;99.90
20946;DHT22;10632;51.276;7.116;2023-05-21T11:57:32;19.60;99.90
20946;DHT22;10632;51.276;7.116;2023-05-21T12:00:04;19.70;99.90
20946;DHT22;10632;51.276;7.116;2023-05-21T12:02:49;19.70;99.90
20946;DHT22;10632;51.276;7.116;2023-05-21T12:05:16;19.70;99.90
20946;DHT22;10632;51.276;7.116;2023-05-21T12:07:47;19.70;99.90
20946;DHT22;10632;51.276;7.116;2023-05-21T12:10:21;19.60;99.90
20946;DHT22;10632;51.276;7.116;2023-05-21T12:12:52;19.60;99.90
20946;DHT22;10632;51.276;7.116;2023-05-21T12:15:25;19.60;99.90
20946;DHT22;10632;51.276;7.116;2023-05-21T12:17:58;19.70;99.90
20946;DHT22;10632;51.276;7.116;2023-05-21T12:20:26;19.70;99.90
20946;DHT22;10632;51.276;7.116;2023-05-21T12:22:53;19.70;99.90
20946;DHT22;10632;51.276;7.116;2023-05-21T12:25:20;19.80;99.90
20946;DHT22;10632;51.276;7.116;2023-05-21T12:27:48;19.90;99.90
20946;DHT22;10632;51.276;7.116;2023-05-21T12:30:17;19.90;99.90
20946;DHT22;10632;51.276;7.116;2023-05-21T12:32:48;20.00;99.90
20946;DHT22;10632;51.276;7.116;2023-05-21T12:35:21;20.10;99.90
20946;DHT22;10632;51.276;7.116;2023-05-21T12:37:52;20.30;99.90
20946;DHT22;10632;51.276;7.116;2023-05-21T12:40:19;20.50;99.90
20946;DHT22;10632;51.276;7.116;2023-05-21T12:42:55;20.60;99.90
20946;DHT22;10632;51.276;7.116;2023-05-21T12:45:29;20.70;99.90
20946;DHT22;10632;51.276;7.116;2023-05-21T12:48:00;20.90;99.90
20946;DHT22;10632;51.276;7.116;2023-05-21T12:50:32;21.00;99.90
20946;DHT22;10632;51.276;7.116;2023-05-21T12:52:59;21.00;99.90
20946;DHT22;10632;51.276;7.116;2023-05-21T12:55:34;21.00;99.90
20946;DHT22;10632;51.276;7.116;2023-05-21T12:58:05;20.90;99.90
20946;DHT22;10632;51.276;7.116;2023-05-21T13:00:35;21.00;99.90
20946;DHT22;10632;51.276;7.116;2023-05-21T13:03:08;20.90;99.90
20946;DHT22;10632;51.276;7.116;2023-05-21T13:05:39;21.00;99.90
20946;DHT22;10632;51.276;7.116;2023-05-21T13:08:06;21.00;99.90
20946;DHT22;10632;51.276;7.116;2023-05-21T13:10:38;21.10;99.90
20946;DHT22;10632;51.276;7.116;2023-05-21T13:13:05;21.20;99.90
20946;DHT22;10632;51.276;7.116;2023-05-21T13:15:33;21.30;99.90
20946;DHT22;10632;51.276;7.116;2023-05-21T13:18:00;21.30;99.90
20946;DHT22;10632;51.276;7.116;2023-05-21T13:20:28;21.30;99.90
20946;DHT22;10632;51.276;7.116;2023-05-21T13:22:55;21.30;99.90
20946;DHT22;10632;51.276;7.116;2023-05-21T13:25:24;21.20;99.90
20946;DHT22;10632;51.276;7.116;2023-05-21T13:27:53;21.20;99.90
20946;DHT22;10632;51.276;7.116;2023-05-21T13:30:21;21.20;99.90
20946;DHT22;10632;51.276;7.116;2023-05-21T13:32:48;21.20;99.90
20946;DHT22;10632;51.276;7.116;2023-05-21T13:35:18;21.30;99.90
20946;DHT22;10632;51.276;7.116;2023-05-21T13:38:06;21.40;99.90
20946;DHT22;10632;51.276;7.116;2023-05-21T13:40:44;21.50;99.90
20946;DHT22;10632;51.276;7.116;2023-05-21T13:43:13;21.50;99.90
20946;DHT22;10632;51.276;7.116;2023-05-21T13:45:40;21.60;99.90
20946;DHT22;10632;51.276;7.116;2023-05-21T13:48:08;21.70;99.90
20946;DHT22;10632;51.276;7.116;2023-05-21T13:50:35;21.80;99.90
20946;DHT22;10632;51.276;7.116;2023-05-21T13:53:08;21.70;99.90
20946;DHT22;10632;51.276;7.116;2023-05-21T13:55:39;21.70;99.90
20946;DHT22;10632;51.276;7.116;2023-05-21T13:58:08;21.80;99.90
20946;DHT22;10632;51.276;7.116;2023-05-21T14:00:41;21.80;99.90
20946;DHT22;10632;51.276;7.116;2023-05-21T14:03:11;21.80;99.90
20946;DHT22;10632;51.276;7.116;2023-05-21T14:05:38;21.90;99.90
20946;DHT22;10632;51.276;7.116;2023-05-21T14:08:07;22.00;99.90
20946;DHT22;10632;51.276;7.116;2023-05-21T14:10:38;21.90;99.90
20946;DHT22;10632;51.276;7.116;2023-05-21T14:13:07;22.00;99.90
20946;DHT22;10632;51.276;7.116;2023-05-21T14:15:34;22.00;99.90
20946;DHT22;10632;51.276;7.116;2023-05-21T14:18:03;22.00;99.90
20946;DHT22;10632;51.276;7.116;2023-05-21T14:20:38;21.90;99.90
20946;DHT22;10632;51.276;7.116;2023-05-21T14:23:11;21.90;99.90
20946;DHT22;10632;51.276;7.116;2023-05-21T14:25:40;21.90;99.90
20946;DHT22;10632;51.276;7.116;2023-05-21T14:28:07;22.00;99.90
20946;DHT22;10632;51.276;7.116;2023-05-21T14:30:51;22.00;99.90
20946;DHT22;10632;51.276;7.116;2023-05-21T14:33:19;22.00;99.90
20946;DHT22;10632;51.276;7.116;2023-05-21T14:35:47;22.00;99.90
20946;DHT22;10632;51.276;7.116;2023-05-21T14:38:17;22.00;99.90
20946;DHT22;10632;51.276;7.116;2023-05-21T14:40:44;22.00;99.90
20946;DHT22;10632;51.276;7.116;2023-05-21T14:43:12;22.00;99.90
20946;DHT22;10632;51.276;7.116;2023-05-21T14:45:41;22.00;99.90
20946;DHT22;10632;51.276;7.116;2023-05-21T14:48:08;22.00;99.90
20946;DHT22;10632;51.276;7.116;2023-05-21T14:50:38;22.00;99.90
20946;DHT22;10632;51.276;7.116;2023-05-21T14:53:11;22.00;99.90
20946;DHT22;10632;51.276;7.116;2023-05-21T14:55:40;21.90;99.90
20946;DHT22;10632;51.276;7.116;2023-05-21T14:58:21;21.90;99.90
20946;DHT22;10632;51.276;7.116;2023-05-21T15:00:48;21.90;99.90
20946;DHT22;10632;51.276;7.116;2023-05-21T15:03:23;21.90;99.90
20946;DHT22;10632;51.276;7.116;2023-05-21T15:05:50;21.90;99.90
20946;DHT22;10632;51.276;7.116;2023-05-21T15:08:20;21.90;99.90
20946;DHT22;10632;51.276;7.116;2023-05-21T15:10:49;22.00;99.90
20946;DHT22;10632;51.276;7.116;2023-05-21T15:13:21;22.10;99.90
20946;DHT22;10632;51.276;7.116;2023-05-21T15:15:48;22.20;99.90
20946;DHT22;10632;51.276;7.116;2023-05-21T15:18:18;22.20;99.90
20946;DHT22;10632;51.276;7.116;2023-05-21T15:20:51;22.20;99.90
20946;DHT22;10632;51.276;7.116;2023-05-21T15:23:18;22.20;99.90
20946;DHT22;10632;51.276;7.116;2023-05-21T15:25:45;22.20;99.90
20946;DHT22;10632;51.276;7.116;2023-05-21T15:28:24;22.20;99.90
20946;DHT22;10632;51.276;7.116;2023-05-21T15:31:10;22.30;99.90
20946;DHT22;10632;51.276;7.116;2023-05-21T15:33:51;22.30;99.90
20946;DHT22;10632;51.276;7.116;2023-05-21T15:36:18;22.30;99.90
20946;DHT22;10632;51.276;7.116;2023-05-21T15:38:45;22.30;99.90
20946;DHT22;10632;51.276;7.116;2023-05-21T15:41:12;22.30;99.90
20946;DHT22;10632;51.276;7.116;2023-05-21T15:43:40;22.30;99.90
20946;DHT22;10632;51.276;7.116;2023-05-21T15:46:07;22.40;99.90
20946;DHT22;10632;51.276;7.116;2023-05-21T15:48:40;22.40;99.90